Time;durP1;ratioP1;P1;durP2;ratioP2;P2;SDS_P1;SDS_P2;PMS_P1;PMS_P2;Temp;Humidity;BMP_temperature;BMP_pressure;BME280_temperature;BME280_humidity;BME280_pressure;Samples;Min_cycle;Max_cycle;Signal;HPM_P1;HPM_P2
2023/02/05 00:01:28;;;;;;;14.98;6.60;;;-0.50;99.90;;;;;;5014033;28;20026;-73
2023/02/05 00:03:54;;;;;;;10.43;6.13;;;-0.50;99.90;;;;;;5013939;28;20152;-73
2023/02/05 00:06:20;;;;;;;9.23;5.57;;;-0.40;99.90;;;;;;5014020;28;20025;-74
2023/02/05 00:08:45;;;;;;;10.85;5.70;;;-0.40;99.90;;;;;;5014055;28;20037;-74
2023/02/05 00:11:11;;;;;;;13.02;5.75;;;-0.40;99.90;;;;;;5013857;28;20022;-73
2023/02/05 00:13:38;;;;;;;9.52;5.45;;;-0.40;99.90;;;;;;5013943;28;20538;-73
2023/02/05 00:16:16;;;;;;;10.02;5.25;;;-0.30;99.90;;;;;;5013576;28;20054;-73
2023/02/05 00:18:42;;;;;;;11.73;5.47;;;-0.30;99.90;;;;;;5013804;28;20097;-74
2023/02/05 00:21:09;;;;;;;8.82;5.07;;;-0.30;99.90;;;;;;5013728;28;20549;-73
2023/02/05 00:23:36;;;;;;;12.13;5.72;;;-0.30;99.90;;;;;;5013522;28;20025;-73
2023/02/05 00:26:03;;;;;;;9.20;5.35;;;-0.20;99.90;;;;;;5013869;28;20447;-74
2023/02/05 00:28:33;;;;;;;15.02;4.90;;;-0.20;99.90;;;;;;5013612;28;20053;-73
2023/02/05 00:30:59;;;;;;;7.53;4.68;;;-0.20;99.90;;;;;;5013164;28;20037;-73
2023/02/05 00:33:25;;;;;;;10.55;4.47;;;-0.20;99.90;;;;;;5013291;28;20026;-73
2023/02/05 00:35:50;;;;;;;7.30;5.05;;;-0.30;99.90;;;;;;5013738;28;20057;-73
2023/02/05 00:38:16;;;;;;;9.43;4.90;;;-0.20;99.90;;;;;;5013223;28;20468;-73
2023/02/05 00:40:41;;;;;;;7.25;4.43;;;-0.30;99.90;;;;;;5013435;28;20104;-73
2023/02/05 00:43:07;;;;;;;6.18;4.50;;;-0.20;99.90;;;;;;5013647;28;20060;-74
2023/02/05 00:45:36;;;;;;;10.32;4.85;;;-0.30;99.90;;;;;;5014014;28;20026;-73
2023/02/05 00:48:05;;;;;;;6.85;3.85;;;-0.30;99.90;;;;;;5013463;28;20108;-73
2023/02/05 00:50:32;;;;;;;10.93;4.47;;;-0.30;99.90;;;;;;5013821;28;20480;-73
2023/02/05 00:52:57;;;;;;;7.85;4.45;;;-0.30;99.90;;;;;;5013302;28;20022;-73
2023/02/05 00:55:23;;;;;;;11.73;4.97;;;-0.30;99.90;;;;;;5013587;28;20044;-73
2023/02/05 00:57:49;;;;;;;11.82;4.82;;;-0.30;99.90;;;;;;5013302;28;20117;-73
2023/02/05 01:00:15;;;;;;;10.80;3.80;;;-0.30;99.90;;;;;;5013456;28;20022;-73
2023/02/05 01:02:40;;;;;;;8.57;4.63;;;-0.30;99.90;;;;;;5013706;28;20026;-73
2023/02/05 01:05:07;;;;;;;11.90;5.32;;;-0.30;99.90;;;;;;5013969;28;20022;-72
2023/02/05 01:07:32;;;;;;;7.93;4.82;;;-0.40;99.90;;;;;;5013938;28;20022;-73
2023/02/05 01:09:58;;;;;;;7.47;4.40;;;-0.30;99.90;;;;;;5013095;28;20030;-73
2023/02/05 01:12:23;;;;;;;12.82;4.78;;;-0.40;99.90;;;;;;5013412;28;20097;-73
2023/02/05 01:14:49;;;;;;;9.55;4.65;;;-0.40;99.90;;;;;;5013198;28;20014;-74
2023/02/05 01:17:15;;;;;;;6.75;3.78;;;-0.30;99.90;;;;;;5013435;28;20026;-74
2023/02/05 01:19:41;;;;;;;12.00;5.18;;;-0.20;99.90;;;;;;5013319;28;20084;-73
2023/02/05 01:22:06;;;;;;;9.25;5.47;;;-0.20;99.90;;;;;;5012941;28;20041;-73
2023/02/05 01:24:32;;;;;;;7.15;4.75;;;-0.20;99.90;;;;;;5013212;28;20052;-73
2023/02/05 01:26:58;;;;;;;6.45;4.03;;;-0.20;99.90;;;;;;5013326;28;20054;-73
2023/02/05 01:29:25;;;;;;;9.57;4.10;;;-0.10;99.90;;;;;;5012965;28;20115;-73
2023/02/05 01:31:51;;;;;;;11.43;4.25;;;-0.10;99.90;;;;;;5013160;28;20469;-73
2023/02/05 01:34:17;;;;;;;11.52;5.03;;;-0.10;99.90;;;;;;5012785;28;20037;-73
2023/02/05 01:36:42;;;;;;;7.72;4.82;;;-0.10;99.90;;;;;;5012993;28;20026;-73
2023/02/05 01:39:08;;;;;;;9.02;5.05;;;-0.10;99.90;;;;;;5012800;28;20026;-73
2023/02/05 01:41:34;;;;;;;13.70;5.28;;;-0.10;99.90;;;;;;5014479;28;20508;-74
2023/02/05 01:44:29;;;;;;;10.43;4.55;;;0.00;99.90;;;;;;5017108;28;20052;-73
2023/02/05 01:46:55;;;;;;;9.63;4.93;;;0.00;99.90;;;;;;4996018;28;20042;-74
2023/02/05 01:49:28;;;;;;;10.35;4.88;;;-0.10;99.90;;;;;;5016540;28;20022;-74
2023/02/05 01:51:57;;;;;;;8.05;4.43;;;0.00;99.90;;;;;;5016378;28;20510;-74
2023/02/05 01:54:27;;;;;;;11.77;4.68;;;0.00;99.90;;;;;;5016318;28;20431;-74
2023/02/05 01:56:59;;;;;;;7.72;5.07;;;-0.10;99.90;;;;;;5016370;28;20026;-74
2023/02/05 01:59:28;;;;;;;10.43;4.72;;;0.00;99.90;;;;;;5016565;28;20029;-73
2023/02/05 02:01:54;;;;;;;6.70;4.07;;;0.00;99.90;;;;;;5016134;28;20392;-73
2023/02/05 02:04:42;;;;;;;8.13;4.68;;;0.00;99.90;;;;;;5016523;28;20030;-74
2023/02/05 02:07:14;;;;;;;8.57;4.93;;;0.00;99.90;;;;;;5016290;28;20026;-74
2023/02/05 02:09:42;;;;;;;16.55;5.05;;;0.00;99.90;;;;;;5015729;28;20429;-73
2023/02/05 02:12:09;;;;;;;10.57;4.70;;;0.00;99.90;;;;;;4998562;28;20029;-74
2023/02/05 02:14:38;;;;;;;11.35;4.78;;;0.00;99.90;;;;;;5016497;28;20376;-74
2023/02/05 02:17:06;;;;;;;9.35;5.07;;;0.00;99.90;;;;;;5016248;28;20033;-74
2023/02/05 02:19:41;;;;;;;12.45;4.85;;;0.00;99.90;;;;;;5016389;28;20033;-73
2023/02/05 02:22:32;;;;;;;10.88;4.70;;;0.00;99.90;;;;;;5016266;28;20112;-73
2023/02/05 02:25:06;;;;;;;10.05;5.07;;;0.10;99.90;;;;;;5015816;28;20022;-74
2023/02/05 02:27:40;;;;;;;14.55;5.30;;;0.00;99.90;;;;;;5012547;28;20101;-73
2023/02/05 02:30:30;;;;;;;13.63;4.55;;;0.00;99.90;;;;;;4996646;28;20160;-74
2023/02/05 02:33:10;;;;;;;11.20;5.07;;;-0.10;99.90;;;;;;4996267;28;20033;-74
2023/02/05 02:35:39;;;;;;;6.60;4.45;;;-0.10;99.90;;;;;;4978866;28;20033;-74
2023/02/05 02:38:28;;;;;;;12.55;5.38;;;0.00;99.90;;;;;;4996317;28;20031;-74
2023/02/05 02:41:02;;;;;;;13.30;5.60;;;-0.10;99.90;;;;;;4995732;28;20038;-74
2023/02/05 02:43:35;;;;;;;8.02;4.43;;;-0.10;99.90;;;;;;4996945;28;20400;-74
2023/02/05 02:46:05;;;;;;;10.10;4.63;;;-0.10;99.90;;;;;;4996406;28;20389;-74
2023/02/05 02:48:33;;;;;;;10.10;5.18;;;-0.20;99.90;;;;;;4996242;28;20034;-74
2023/02/05 02:51:01;;;;;;;15.32;5.13;;;-0.20;99.90;;;;;;4995848;28;20026;-73
2023/02/05 02:53:34;;;;;;;9.35;5.45;;;-0.20;99.90;;;;;;4995563;28;20018;-74
2023/02/05 02:56:01;;;;;;;13.32;5.90;;;-0.20;99.90;;;;;;5003334;28;20026;-74
2023/02/05 02:58:41;;;;;;;9.55;5.47;;;-0.30;99.90;;;;;;4997890;28;20022;-74
2023/02/05 03:01:08;;;;;;;8.80;5.38;;;-0.30;99.90;;;;;;5013840;28;20037;-73
2023/02/05 03:03:40;;;;;;;10.57;4.35;;;-0.40;99.90;;;;;;5015276;28;20026;-75
2023/02/05 03:06:08;;;;;;;12.02;4.97;;;-0.40;99.90;;;;;;5015632;28;20018;-74
2023/02/05 03:08:46;;;;;;;11.23;4.75;;;-0.40;99.90;;;;;;5015138;28;20022;-74
2023/02/05 03:11:14;;;;;;;20.25;5.63;;;-0.40;99.90;;;;;;5015436;28;20483;-73
2023/02/05 03:13:41;;;;;;;10.50;5.85;;;-0.30;99.90;;;;;;4997527;28;20435;-74
2023/02/05 03:16:09;;;;;;;10.98;5.13;;;-0.30;99.90;;;;;;5015069;28;20057;-74
2023/02/05 03:18:35;;;;;;;8.63;5.72;;;-0.30;99.90;;;;;;5015092;28;20038;-74
2023/02/05 03:21:11;;;;;;;10.50;5.78;;;-0.20;99.90;;;;;;5015679;28;20368;-73
2023/02/05 03:23:37;;;;;;;10.18;5.25;;;-0.20;99.90;;;;;;5015365;28;20482;-74
2023/02/05 03:26:03;;;;;;;16.33;5.20;;;-0.10;99.90;;;;;;5014887;28;20112;-74
2023/02/05 03:28:28;;;;;;;14.77;5.85;;;-0.10;99.90;;;;;;5015015;28;20472;-74
2023/02/05 03:31:06;;;;;;;9.52;5.50;;;-0.10;99.90;;;;;;5015079;28;20057;-74
2023/02/05 03:33:44;;;;;;;8.27;4.32;;;-0.10;99.90;;;;;;5016029;28;20014;-74
2023/02/05 03:36:41;;;;;;;9.57;5.07;;;-0.10;99.90;;;;;;5015337;28;20025;-74
2023/02/05 03:39:16;;;;;;;11.40;5.80;;;-0.10;99.90;;;;;;5013339;28;20029;-74
2023/02/05 03:41:57;;;;;;;9.85;5.55;;;-0.10;99.90;;;;;;4996918;28;20423;-74
2023/02/05 03:44:54;;;;;;;21.70;5.50;;;0.00;99.90;;;;;;5014663;28;20025;-74
2023/02/05 03:47:56;;;;;;;7.20;5.13;;;0.00;99.90;;;;;;5014344;28;20048;-73
2023/02/05 03:50:57;;;;;;;10.40;5.63;;;0.00;99.90;;;;;;5014969;28;20396;-73
2023/02/05 03:53:37;;;;;;;15.32;5.25;;;0.10;99.90;;;;;;5014773;28;20421;-74
2023/02/05 03:56:12;;;;;;;12.90;6.22;;;0.00;99.90;;;;;;5014948;28;20076;-74
2023/02/05 03:58:44;;;;;;;11.48;5.47;;;0.10;99.90;;;;;;5014566;28;20072;-74
2023/02/05 04:01:11;;;;;;;20.35;6.13;;;0.10;99.90;;;;;;5014162;28;20025;-73
2023/02/05 04:03:36;;;;;;;8.85;5.63;;;0.10;99.90;;;;;;5014059;28;20109;-73
2023/02/05 04:06:03;;;;;;;10.02;5.53;;;0.10;99.90;;;;;;5012776;28;20063;-74
2023/02/05 04:08:28;;;;;;;14.10;5.78;;;0.10;99.90;;;;;;5014147;28;20112;-74
2023/02/05 04:10:54;;;;;;;9.60;4.90;;;0.10;99.90;;;;;;5013795;28;20068;-73
2023/02/05 04:13:19;;;;;;;11.00;5.30;;;0.20;99.90;;;;;;5013945;28;20030;-74
2023/02/05 04:15:47;;;;;;;23.13;8.05;;;0.10;99.90;;;;;;5013312;28;20025;-73
2023/02/05 04:18:13;;;;;;;9.77;5.63;;;0.10;99.90;;;;;;5013868;28;20427;-73
2023/02/05 04:20:38;;;;;;;15.73;6.32;;;0.20;99.90;;;;;;5014016;28;20022;-74
2023/02/05 04:23:04;;;;;;;11.70;5.88;;;0.20;99.90;;;;;;5013761;28;20041;-74
2023/02/05 04:25:30;;;;;;;12.07;6.32;;;0.20;99.90;;;;;;5013804;28;20034;-74
2023/02/05 04:27:55;;;;;;;10.40;5.93;;;0.30;99.90;;;;;;5014180;28;20464;-74
2023/02/05 04:30:21;;;;;;;10.43;5.47;;;0.20;99.90;;;;;;5013986;28;20022;-74
2023/02/05 04:32:46;;;;;;;11.52;6.28;;;0.30;99.90;;;;;;5013903;28;20022;-74
2023/02/05 04:35:12;;;;;;;12.68;6.03;;;0.20;99.90;;;;;;5013968;28;20022;-74
2023/02/05 04:37:37;;;;;;;12.52;6.35;;;0.30;99.90;;;;;;4996828;28;20056;-74
2023/02/05 04:40:03;;;;;;;11.60;6.05;;;0.30;99.90;;;;;;5013850;28;20026;-74
2023/02/05 04:42:29;;;;;;;15.65;6.68;;;0.20;99.90;;;;;;5013736;28;20115;-73
2023/02/05 04:44:55;;;;;;;15.25;6.70;;;0.20;99.90;;;;;;5013489;28;20066;-74
2023/02/05 04:47:20;;;;;;;19.83;6.40;;;0.20;99.90;;;;;;5013578;28;20242;-74
2023/02/05 04:49:46;;;;;;;12.27;6.35;;;0.20;99.90;;;;;;5013601;28;20038;-74
2023/02/05 04:52:11;;;;;;;13.10;6.63;;;0.20;99.90;;;;;;5013647;28;20443;-73
2023/02/05 04:54:37;;;;;;;10.15;6.75;;;0.20;99.90;;;;;;5013556;28;20384;-73
2023/02/05 04:57:03;;;;;;;17.40;6.70;;;0.20;99.90;;;;;;5013788;28;20052;-74
2023/02/05 04:59:30;;;;;;;11.65;6.10;;;0.30;99.90;;;;;;5013701;28;20029;-74
2023/02/05 05:01:56;;;;;;;9.25;5.60;;;0.30;99.90;;;;;;5013835;28;20030;-74
2023/02/05 05:04:22;;;;;;;8.50;6.10;;;0.30;99.90;;;;;;5014198;28;20026;-74
2023/02/05 05:06:47;;;;;;;15.05;6.47;;;0.30;99.90;;;;;;5013526;28;20072;-74
2023/02/05 05:09:13;;;;;;;11.90;6.72;;;0.30;99.90;;;;;;5013389;28;20412;-73
2023/02/05 05:11:38;;;;;;;11.75;6.68;;;0.30;99.90;;;;;;5013488;28;20029;-74
2023/02/05 05:14:04;;;;;;;19.63;6.93;;;0.30;99.90;;;;;;5013559;28;20026;-74
2023/02/05 05:16:29;;;;;;;13.55;6.45;;;0.30;99.90;;;;;;5015180;28;20033;-74
2023/02/05 05:18:55;;;;;;;16.63;7.00;;;0.30;99.90;;;;;;4999679;28;20093;-73
2023/02/05 05:21:20;;;;;;;11.40;6.22;;;0.30;99.90;;;;;;5017493;28;20033;-74
2023/02/05 05:23:46;;;;;;;14.45;6.80;;;0.30;99.90;;;;;;5017114;28;20049;-74
2023/02/05 05:26:12;;;;;;;14.73;6.65;;;0.30;99.90;;;;;;5017000;28;20026;-74
2023/02/05 05:28:38;;;;;;;12.98;6.03;;;0.30;99.90;;;;;;5017038;28;20030;-74
2023/02/05 05:31:18;;;;;;;10.88;6.00;;;0.20;99.90;;;;;;5017044;28;20033;-74
2023/02/05 05:33:44;;;;;;;9.98;6.20;;;0.20;99.90;;;;;;5017364;28;20018;-74
2023/02/05 05:36:09;;;;;;;12.80;7.28;;;0.20;99.90;;;;;;5017306;28;20096;-74
2023/02/05 05:38:35;;;;;;;15.93;6.95;;;0.20;99.90;;;;;;5017565;28;20026;-74
2023/02/05 05:43:45;;;;;;;12.02;7.25;;;0.20;99.90;;;;;;5016929;28;20041;-73
2023/02/05 05:46:11;;;;;;;16.08;7.15;;;0.10;99.90;;;;;;5016800;28;20026;-74
2023/02/05 05:48:36;;;;;;;15.52;7.30;;;0.20;99.90;;;;;;5016487;28;20045;-73
2023/02/05 05:51:02;;;;;;;12.25;6.85;;;0.10;99.90;;;;;;5016632;28;20407;-73
2023/02/05 05:53:28;;;;;;;13.40;8.10;;;0.10;99.90;;;;;;5016372;28;20018;-74
2023/02/05 05:55:54;;;;;;;18.02;7.90;;;0.10;99.90;;;;;;5016584;28;20060;-74
2023/02/05 05:58:19;;;;;;;13.20;7.80;;;0.10;99.90;;;;;;5017225;28;20373;-74
2023/02/05 06:00:45;;;;;;;12.40;7.38;;;0.10;99.90;;;;;;5016927;28;20014;-74
2023/02/05 06:03:11;;;;;;;15.93;8.98;;;0.10;99.90;;;;;;5017005;28;20045;-74
2023/02/05 06:05:37;;;;;;;18.17;8.25;;;0.10;99.90;;;;;;5016315;28;20403;-74
2023/02/05 06:08:03;;;;;;;14.93;8.20;;;0.10;99.90;;;;;;5016443;28;20030;-74
2023/02/05 06:10:28;;;;;;;18.90;8.43;;;0.10;99.90;;;;;;5016302;28;20029;-74
2023/02/05 06:12:55;;;;;;;14.05;7.50;;;0.10;99.90;;;;;;5015982;28;20025;-74
2023/02/05 06:15:21;;;;;;;21.10;7.75;;;0.20;99.90;;;;;;5016342;28;20018;-74
2023/02/05 06:17:46;;;;;;;15.50;8.70;;;0.10;99.90;;;;;;5016310;28;20072;-74
2023/02/05 06:20:13;;;;;;;16.92;8.57;;;0.10;99.90;;;;;;5016208;28;20024;-74
2023/02/05 06:22:39;;;;;;;18.25;8.18;;;0.10;99.90;;;;;;5016590;28;20105;-73
2023/02/05 06:25:05;;;;;;;13.68;8.27;;;0.20;99.90;;;;;;5016155;28;20029;-74
2023/02/05 06:27:31;;;;;;;13.65;7.60;;;0.10;99.90;;;;;;5015213;28;20026;-74
2023/02/05 06:29:57;;;;;;;13.38;8.25;;;0.20;99.90;;;;;;5016145;28;20033;-74
2023/02/05 06:32:23;;;;;;;15.27;8.52;;;0.20;99.90;;;;;;5015888;28;20468;-74
2023/02/05 06:34:48;;;;;;;12.02;7.70;;;0.20;99.90;;;;;;5016020;28;20045;-74
2023/02/05 06:37:14;;;;;;;16.88;8.50;;;0.20;99.90;;;;;;5015833;28;20033;-74
2023/02/05 06:39:39;;;;;;;13.05;8.23;;;0.20;99.90;;;;;;5017019;28;20380;-74
2023/02/05 06:42:05;;;;;;;11.18;7.75;;;0.20;99.90;;;;;;4998068;28;20030;-74
2023/02/05 06:44:31;;;;;;;11.43;7.63;;;0.20;99.90;;;;;;5015470;28;20026;-73
2023/02/05 06:46:57;;;;;;;16.52;8.38;;;0.20;99.90;;;;;;5015309;28;20049;-73
2023/02/05 06:49:22;;;;;;;14.90;7.93;;;0.20;99.90;;;;;;5015664;28;20037;-74
2023/02/05 06:51:48;;;;;;;11.55;7.55;;;0.20;99.90;;;;;;5015566;28;20050;-75
2023/02/05 06:54:13;;;;;;;11.25;7.15;;;0.20;99.90;;;;;;5016142;28;20076;-74
2023/02/05 06:56:39;;;;;;;12.43;7.75;;;0.20;99.90;;;;;;5015597;28;20033;-74
2023/02/05 06:59:04;;;;;;;10.13;7.35;;;0.20;99.90;;;;;;5015974;28;20084;-74
2023/02/05 07:01:30;;;;;;;14.43;7.82;;;0.20;99.90;;;;;;5015344;28;20026;-73
2023/02/05 07:03:55;;;;;;;13.05;7.90;;;0.20;99.90;;;;;;5015703;28;20025;-74
2023/02/05 07:06:22;;;;;;;20.52;8.85;;;0.20;99.90;;;;;;5015452;28;20026;-74
2023/02/05 07:08:52;;;;;;;15.55;8.65;;;0.20;99.90;;;;;;5015288;28;20037;-74
2023/02/05 07:11:18;;;;;;;13.65;7.68;;;0.20;99.90;;;;;;5015210;28;20026;-75
2023/02/05 07:13:43;;;;;;;17.33;9.40;;;0.20;99.90;;;;;;5015281;28;20104;-74
2023/02/05 07:16:09;;;;;;;16.83;8.57;;;0.30;99.90;;;;;;5015079;28;20057;-74
2023/02/05 07:18:34;;;;;;;18.23;8.60;;;0.30;99.90;;;;;;5015444;28;20034;-74
2023/02/05 07:21:04;;;;;;;12.93;8.40;;;0.30;99.90;;;;;;5014907;28;20033;-74
2023/02/05 07:23:30;;;;;;;11.38;8.10;;;0.30;99.90;;;;;;5015006;28;20025;-74
2023/02/05 07:25:55;;;;;;;19.05;8.20;;;0.30;99.90;;;;;;4997568;28;20088;-74
2023/02/05 07:28:21;;;;;;;19.02;9.05;;;0.30;99.90;;;;;;4997369;28;20022;-74
2023/02/05 07:30:48;;;;;;;14.55;8.70;;;0.30;99.90;;;;;;5014861;28;20053;-73
2023/02/05 07:33:14;;;;;;;17.85;9.25;;;0.30;99.90;;;;;;5014795;28;20050;-74
2023/02/05 07:35:40;;;;;;;17.30;8.55;;;0.30;99.90;;;;;;5015148;28;20033;-74
2023/02/05 07:38:05;;;;;;;14.50;8.52;;;0.30;99.90;;;;;;4996513;28;20022;-74
2023/02/05 07:40:31;;;;;;;21.75;9.85;;;0.30;99.90;;;;;;5014981;28;20044;-74
2023/02/05 07:42:57;;;;;;;14.93;9.30;;;0.40;99.90;;;;;;5014545;28;20051;-72
2023/02/05 07:45:23;;;;;;;13.50;8.35;;;0.40;99.90;;;;;;5014335;28;20026;-71
2023/02/05 07:47:52;;;;;;;16.65;9.88;;;0.40;99.90;;;;;;5014139;28;20022;-71
2023/02/05 07:50:18;;;;;;;15.52;9.25;;;0.40;99.90;;;;;;5014324;28;20018;-71
2023/02/05 07:52:44;;;;;;;18.27;9.82;;;0.40;99.90;;;;;;5014050;28;20029;-72
2023/02/05 07:55:09;;;;;;;14.20;8.68;;;0.40;99.90;;;;;;5014419;28;20018;-71
2023/02/05 07:57:35;;;;;;;13.88;8.48;;;0.40;99.90;;;;;;5014364;28;20117;-71
2023/02/05 08:00:00;;;;;;;16.10;9.15;;;0.40;99.90;;;;;;5013706;28;20026;-72
2023/02/05 08:02:26;;;;;;;18.23;9.82;;;0.50;99.90;;;;;;5013984;28;20101;-71
2023/02/05 08:04:52;;;;;;;16.00;9.63;;;0.50;99.90;;;;;;5013873;28;20037;-71
2023/02/05 08:07:17;;;;;;;13.23;8.75;;;0.50;99.90;;;;;;5013886;28;20373;-71
2023/02/05 08:09:43;;;;;;;12.57;8.30;;;0.50;99.90;;;;;;5013997;28;20467;-71
2023/02/05 08:12:08;;;;;;;14.77;9.30;;;0.50;99.90;;;;;;4996489;28;20022;-72
2023/02/05 08:14:34;;;;;;;16.75;8.98;;;0.50;99.90;;;;;;5013818;28;20529;-71
2023/02/05 08:17:00;;;;;;;16.65;8.77;;;0.60;99.90;;;;;;5013915;28;20025;-71
2023/02/05 08:19:26;;;;;;;13.05;9.23;;;0.60;99.90;;;;;;5013664;28;20054;-72
2023/02/05 08:21:52;;;;;;;11.80;8.85;;;0.60;99.90;;;;;;4996296;28;20057;-72
2023/02/05 08:24:18;;;;;;;17.60;8.43;;;0.60;99.90;;;;;;5013993;28;20384;-72
2023/02/05 08:26:43;;;;;;;16.48;8.80;;;0.70;99.90;;;;;;5014286;28;20043;-72
2023/02/05 08:29:10;;;;;;;15.95;8.68;;;0.60;99.90;;;;;;5013743;28;20117;-72
2023/02/05 08:31:36;;;;;;;12.40;8.38;;;0.60;99.90;;;;;;5013588;28;20101;-72
2023/02/05 08:34:02;;;;;;;12.82;8.98;;;0.60;99.90;;;;;;5013630;28;20084;-72
2023/02/05 08:36:28;;;;;;;15.85;9.43;;;0.70;99.90;;;;;;5013644;28;20026;-72
2023/02/05 08:38:53;;;;;;;16.33;9.05;;;0.80;99.90;;;;;;5013717;28;20476;-72
2023/02/05 08:41:19;;;;;;;14.40;9.60;;;0.80;99.90;;;;;;5013653;28;20400;-72
2023/02/05 08:43:49;;;;;;;16.95;8.65;;;0.80;99.90;;;;;;5013800;28;20034;-72
2023/02/05 08:46:18;;;;;;;14.27;9.07;;;0.90;99.90;;;;;;5013961;28;20034;-72
2023/02/05 08:48:44;;;;;;;15.57;9.68;;;0.90;99.90;;;;;;5013659;28;20022;-71
2023/02/05 08:51:11;;;;;;;11.48;8.10;;;0.80;99.90;;;;;;5014835;28;20029;-71
2023/02/05 08:53:37;;;;;;;21.13;9.10;;;0.80;99.90;;;;;;5017727;28;20061;-71
2023/02/05 08:56:04;;;;;;;13.70;8.15;;;0.80;99.90;;;;;;5000247;28;20026;-71
2023/02/05 08:58:30;;;;;;;17.67;9.95;;;0.80;99.90;;;;;;5017646;28;20365;-71
2023/02/05 09:01:07;;;;;;;16.67;9.07;;;0.70;99.90;;;;;;5017443;28;20057;-71
2023/02/05 09:03:32;;;;;;;19.08;8.85;;;0.80;99.90;;;;;;5017931;28;20534;-71
2023/02/05 09:05:59;;;;;;;13.70;8.07;;;0.80;99.90;;;;;;5017627;28;20030;-71
2023/02/05 09:08:26;;;;;;;14.43;8.40;;;0.80;99.90;;;;;;5017552;28;20183;-71
2023/02/05 09:10:52;;;;;;;18.33;9.10;;;0.80;99.90;;;;;;5017414;28;20053;-71
2023/02/05 09:13:17;;;;;;;12.75;8.20;;;0.80;99.90;;;;;;5017292;28;20052;-71
2023/02/05 09:15:45;;;;;;;16.08;8.30;;;0.80;99.90;;;;;;5017330;28;20022;-71
2023/02/05 09:18:11;;;;;;;16.13;9.35;;;0.90;99.90;;;;;;5017353;28;20029;-71
2023/02/05 09:20:41;;;;;;;12.77;8.45;;;0.90;99.90;;;;;;5017390;28;20022;-71
2023/02/05 09:23:09;;;;;;;13.68;8.57;;;0.90;99.90;;;;;;5017156;28;20076;-71
2023/02/05 09:25:36;;;;;;;15.32;7.65;;;1.00;99.90;;;;;;5017678;28;20484;-71
2023/02/05 09:28:02;;;;;;;16.23;8.32;;;1.00;99.90;;;;;;5017083;28;20026;-71
2023/02/05 09:30:28;;;;;;;14.50;8.90;;;1.00;99.90;;;;;;5017051;28;20018;-71
2023/02/05 09:32:53;;;;;;;18.13;8.05;;;0.90;99.90;;;;;;5017068;28;20026;-71
2023/02/05 09:35:19;;;;;;;16.75;8.65;;;0.90;99.90;;;;;;5017280;28;20033;-71
2023/02/05 09:37:44;;;;;;;14.80;8.27;;;0.90;99.90;;;;;;5016844;28;20116;-71
2023/02/05 09:40:22;;;;;;;13.48;7.38;;;0.90;99.90;;;;;;5017401;28;20092;-71
2023/02/05 09:43:03;;;;;;;14.93;8.50;;;0.90;99.90;;;;;;5017032;28;20439;-70
2023/02/05 09:45:54;;;;;;;17.25;9.57;;;0.80;99.90;;;;;;4999108;28;20072;-71
2023/02/05 09:49:08;;;;;;;14.95;7.50;;;0.90;99.90;;;;;;4999067;28;20030;-71
2023/02/05 09:51:42;;;;;;;16.10;7.97;;;0.90;99.90;;;;;;4995486;28;20522;-71
2023/02/05 09:54:20;;;;;;;10.80;7.60;;;1.00;99.90;;;;;;5016712;28;20030;-71
2023/02/05 09:56:47;;;;;;;14.80;7.93;;;1.00;99.90;;;;;;5016573;28;20022;-71
2023/02/05 09:59:16;;;;;;;11.00;7.35;;;1.00;99.90;;;;;;5016550;28;20022;-71
2023/02/05 10:01:52;;;;;;;13.10;7.68;;;1.10;99.90;;;;;;5016323;28;20554;-71
2023/02/05 10:04:17;;;;;;;11.60;7.30;;;1.10;99.90;;;;;;5015860;28;20034;-71
2023/02/05 10:07:10;;;;;;;13.07;8.52;;;1.20;99.90;;;;;;5016333;28;20026;-71
2023/02/05 10:10:10;;;;;;;16.42;8.50;;;1.20;99.90;;;;;;5016535;28;20028;-71
2023/02/05 10:12:53;;;;;;;12.80;7.80;;;1.20;99.90;;;;;;5016270;28;20018;-70
2023/02/05 10:15:35;;;;;;;11.13;7.13;;;1.20;99.90;;;;;;5016131;28;20021;-70
2023/02/05 10:18:55;;;;;;;12.02;6.85;;;1.20;99.90;;;;;;5016373;28;20018;-70
2023/02/05 10:22:09;;;;;;;13.57;8.13;;;1.20;99.90;;;;;;4917746;29;20053;-71
2023/02/05 10:24:38;;;;;;;;;;;1.20;99.90;;;;;;4956234;29;20031;-71
2023/02/05 10:27:27;;;;;;;11.77;7.68;;;1.30;99.90;;;;;;5010639;28;19956;-70
2023/02/05 10:30:13;;;;;;;14.57;7.57;;;1.20;99.90;;;;;;5016493;28;20029;-70
2023/02/05 10:32:51;;;;;;;12.35;8.15;;;1.30;99.90;;;;;;4949913;28;20057;-71
2023/02/05 10:35:31;;;;;;;15.23;7.93;;;1.30;99.90;;;;;;5016197;28;20072;-71
2023/02/05 10:37:57;;;;;;;14.43;8.52;;;1.40;99.90;;;;;;5016406;28;20022;-71
2023/02/05 10:40:30;;;;;;;15.55;7.45;;;1.30;99.90;;;;;;5015852;28;20041;-71
2023/02/05 10:43:00;;;;;;;;;;;1.30;99.90;;;;;;5015989;28;20084;-71
2023/02/05 10:45:28;;;;;;;14.30;7.65;;;1.40;99.90;;;;;;5014435;28;19941;-71
2023/02/05 10:48:41;;;;;;;14.07;8.73;;;1.40;99.90;;;;;;5016417;28;20078;-71
2023/02/05 10:51:14;;;;;;;18.52;8.18;;;1.40;99.90;;;;;;5016139;28;20072;-71
2023/02/05 10:53:40;;;;;;;14.23;8.50;;;1.50;99.90;;;;;;5015502;28;20083;-71
2023/02/05 10:56:06;;;;;;;17.35;9.30;;;1.50;99.90;;;;;;5014289;28;20528;-71
2023/02/05 10:59:06;;;;;;;15.40;8.30;;;1.50;99.90;;;;;;4995901;28;20141;-71
2023/02/05 11:01:35;;;;;;;12.60;6.18;;;1.50;99.90;;;;;;4963892;28;20084;-71
2023/02/05 11:04:33;;;;;;;16.33;7.30;;;1.60;99.90;;;;;;4978285;28;20049;-71
2023/02/05 11:07:04;;;;;;;12.27;7.25;;;1.70;99.90;;;;;;4977703;28;20110;-70
2023/02/05 11:09:32;;;;;;;18.15;8.30;;;1.70;99.90;;;;;;4995545;28;20160;-70
2023/02/05 11:12:01;;;;;;;12.27;8.20;;;1.70;99.90;;;;;;5011043;28;20029;-71
2023/02/05 11:14:37;;;;;;;12.38;7.80;;;1.70;99.90;;;;;;5014486;28;20080;-71
2023/02/05 11:17:25;;;;;;;15.45;8.38;;;1.80;99.90;;;;;;5014988;28;20018;-71
2023/02/05 11:19:57;;;;;;;17.60;8.23;;;1.90;99.90;;;;;;5014062;28;20053;-71
2023/02/05 11:22:35;;;;;;;9.70;7.22;;;1.90;99.90;;;;;;5014856;28;20025;-71
2023/02/05 11:25:20;;;;;;;15.10;7.60;;;1.90;99.90;;;;;;5014885;28;20049;-71
2023/02/05 11:28:04;;;;;;;20.77;8.38;;;1.90;99.90;;;;;;5015171;28;20056;-71
2023/02/05 11:30:36;;;;;;;13.80;6.97;;;1.90;99.90;;;;;;5014861;28;20108;-71
2023/02/05 11:33:20;;;;;;;13.68;7.57;;;2.00;99.90;;;;;;4997103;28;20018;-71
2023/02/05 11:35:51;;;;;;;;;;;2.10;99.90;;;;;;5015375;28;20022;-71
2023/02/05 11:38:28;;;;;;;12.88;8.05;;;2.10;99.90;;;;;;5011539;28;19935;-71
2023/02/05 11:40:59;;;;;;;20.58;8.25;;;2.10;99.90;;;;;;4994890;28;20042;-71
2023/02/05 11:43:30;;;;;;;13.95;7.93;;;2.20;99.90;;;;;;4994933;28;20066;-71
2023/02/05 11:45:57;;;;;;;15.18;8.57;;;2.30;99.90;;;;;;5012258;28;20025;-71
2023/02/05 11:48:38;;;;;;;15.10;9.90;;;2.40;99.90;;;;;;5014071;28;20400;-71
2023/02/05 11:51:06;;;;;;;18.05;8.23;;;2.40;99.90;;;;;;5014335;28;20022;-71
2023/02/05 11:53:33;;;;;;;17.23;9.80;;;2.40;99.90;;;;;;5014421;28;20033;-71
2023/02/05 11:56:20;;;;;;;13.15;9.05;;;2.50;99.90;;;;;;5014692;28;20475;-71
2023/02/05 11:58:58;;;;;;;15.15;8.95;;;2.50;99.90;;;;;;4996718;28;20519;-71
2023/02/05 12:01:25;;;;;;;20.67;9.80;;;2.60;99.90;;;;;;5014041;28;20152;-71
2023/02/05 12:03:58;;;;;;;17.77;9.45;;;2.70;99.90;;;;;;5014106;28;20056;-71
2023/02/05 12:06:34;;;;;;;12.52;8.45;;;2.80;99.90;;;;;;5014278;28;20104;-71
2023/02/05 12:09:00;;;;;;;18.25;8.00;;;2.70;99.90;;;;;;5014079;28;20030;-71
2023/02/05 12:14:43;;;;;;;16.08;9.10;;;2.90;99.90;;;;;;5013861;28;20400;-71
2023/02/05 12:17:35;;;;;;;15.98;8.65;;;2.90;99.90;;;;;;5014346;28;20383;-71
2023/02/05 12:20:26;;;;;;;15.73;9.88;;;2.90;99.90;;;;;;5005524;28;20030;-71
2023/02/05 12:23:17;;;;;;;13.25;9.85;;;3.00;99.90;;;;;;5005826;28;20480;-71
2023/02/05 12:26:10;;;;;;;14.50;9.50;;;3.30;99.90;;;;;;4986187;28;20026;-71
2023/02/05 12:28:47;;;;;;;18.87;9.33;;;3.30;99.90;;;;;;5001763;28;20034;-71
2023/02/05 12:31:50;;;;;;;16.52;9.32;;;3.30;99.90;;;;;;5010718;28;20032;-72
2023/02/05 12:34:23;;;;;;;13.35;9.30;;;3.20;99.90;;;;;;5008711;28;20064;-71
2023/02/05 12:37:07;;;;;;;19.85;9.07;;;3.20;99.90;;;;;;5007008;28;20026;-71
2023/02/05 12:39:52;;;;;;;16.42;8.93;;;3.10;99.90;;;;;;5007360;28;20088;-72
2023/02/05 12:42:39;;;;;;;13.18;8.70;;;3.30;99.90;;;;;;5010095;28;20185;-72
2023/02/05 12:45:19;;;;;;;14.25;8.77;;;3.50;99.90;;;;;;5009643;28;20113;-72
2023/02/05 12:48:01;;;;;;;12.75;8.52;;;3.50;99.90;;;;;;5005627;28;20046;-71
2023/02/05 12:50:44;;;;;;;11.10;7.63;;;3.50;99.90;;;;;;5006307;28;20140;-71
2023/02/05 12:53:31;;;;;;;18.52;8.75;;;3.80;99.90;;;;;;5006934;28;20526;-72
2023/02/05 12:56:09;;;;;;;14.05;8.75;;;4.30;99.90;;;;;;5004815;28;20085;-72
2023/02/05 12:58:49;;;;;;;16.13;8.25;;;4.60;99.90;;;;;;5000494;28;20110;-69
2023/02/05 13:01:28;;;;;;;15.00;7.72;;;5.10;99.90;;;;;;5009647;28;20491;-71
2023/02/05 13:03:59;;;;;;;10.40;6.93;;;5.30;99.90;;;;;;5007885;28;20481;-71
2023/02/05 13:06:35;;;;;;;17.45;8.48;;;5.70;99.90;;;;;;5008907;28;20499;-72
2023/02/05 13:09:07;;;;;;;11.85;7.22;;;6.00;99.90;;;;;;5005000;28;20042;-73
2023/02/05 13:11:45;;;;;;;15.98;6.70;;;6.30;99.90;;;;;;5007793;28;20033;-72
2023/02/05 13:14:21;;;;;;;17.33;7.82;;;6.30;99.90;;;;;;5007654;28;20025;-72